sensor_id;sensor_type;location;lat;lon;timestamp;P1;durP1;ratioP1;P2;durP2;ratioP2
11548;SDS011;61444;59.472;18.306;2022-10-12T00:00:50;0.70;;;0.60;;
11548;SDS011;61444;59.472;18.306;2022-10-12T00:02:59;1.23;;;0.87;;
11548;SDS011;61444;59.472;18.306;2022-10-12T00:05:09;1.53;;;0.80;;
11548;SDS011;61444;59.472;18.306;2022-10-12T00:07:19;1.17;;;0.70;;
11548;SDS011;61444;59.472;18.306;2022-10-12T00:09:30;1.17;;;0.70;;
11548;SDS011;61444;59.472;18.306;2022-10-12T00:11:39;1.37;;;0.80;;
11548;SDS011;61444;59.472;18.306;2022-10-12T00:13:48;0.90;;;0.67;;
11548;SDS011;61444;59.472;18.306;2022-10-12T00:16:00;1.70;;;1.00;;
11548;SDS011;61444;59.472;18.306;2022-10-12T00:18:09;1.43;;;0.80;;
11548;SDS011;61444;59.472;18.306;2022-10-12T00:20:20;1.33;;;0.83;;
11548;SDS011;61444;59.472;18.306;2022-10-12T00:22:29;1.10;;;0.80;;
11548;SDS011;61444;59.472;18.306;2022-10-12T00:24:38;1.00;;;0.70;;
11548;SDS011;61444;59.472;18.306;2022-10-12T00:26:48;0.63;;;0.60;;
11548;SDS011;61444;59.472;18.306;2022-10-12T00:28:58;2.83;;;0.70;;
11548;SDS011;61444;59.472;18.306;2022-10-12T00:31:08;0.87;;;0.60;;
11548;SDS011;61444;59.472;18.306;2022-10-12T00:33:17;1.20;;;0.70;;
11548;SDS011;61444;59.472;18.306;2022-10-12T00:35:28;1.73;;;0.90;;
11548;SDS011;61444;59.472;18.306;2022-10-12T00:37:37;1.33;;;0.70;;
11548;SDS011;61444;59.472;18.306;2022-10-12T00:39:49;0.90;;;0.73;;
11548;SDS011;61444;59.472;18.306;2022-10-12T00:41:58;1.43;;;0.80;;
11548;SDS011;61444;59.472;18.306;2022-10-12T00:46:35;1.13;;;0.80;;
11548;SDS011;61444;59.472;18.306;2022-10-12T00:48:46;0.67;;;0.60;;
11548;SDS011;61444;59.472;18.306;2022-10-12T00:50:57;0.60;;;0.50;;
11548;SDS011;61444;59.472;18.306;2022-10-12T00:53:08;0.70;;;0.60;;
11548;SDS011;61444;59.472;18.306;2022-10-12T00:55:20;1.17;;;0.63;;
11548;SDS011;61444;59.472;18.306;2022-10-12T00:57:30;1.23;;;0.80;;
11548;SDS011;61444;59.472;18.306;2022-10-12T00:59:41;1.33;;;0.63;;
11548;SDS011;61444;59.472;18.306;2022-10-12T01:01:51;1.27;;;0.80;;
11548;SDS011;61444;59.472;18.306;2022-10-12T01:04:01;1.13;;;0.87;;
11548;SDS011;61444;59.472;18.306;2022-10-12T01:06:12;1.47;;;0.80;;
11548;SDS011;61444;59.472;18.306;2022-10-12T01:08:21;3.47;;;0.60;;
11548;SDS011;61444;59.472;18.306;2022-10-12T01:10:30;0.80;;;0.60;;
11548;SDS011;61444;59.472;18.306;2022-10-12T01:12:39;0.90;;;0.63;;
11548;SDS011;61444;59.472;18.306;2022-10-12T01:14:48;0.80;;;0.70;;
11548;SDS011;61444;59.472;18.306;2022-10-12T01:16:58;0.87;;;0.83;;
11548;SDS011;61444;59.472;18.306;2022-10-12T01:19:16;1.73;;;0.70;;
11548;SDS011;61444;59.472;18.306;2022-10-12T01:21:32;1.03;;;0.70;;
11548;SDS011;61444;59.472;18.306;2022-10-12T01:23:56;0.50;;;0.50;;
11548;SDS011;61444;59.472;18.306;2022-10-12T01:26:15;0.90;;;0.70;;
11548;SDS011;61444;59.472;18.306;2022-10-12T01:28:32;1.47;;;0.80;;
11548;SDS011;61444;59.472;18.306;2022-10-12T01:30:46;0.73;;;0.60;;
11548;SDS011;61444;59.472;18.306;2022-10-12T01:33:07;2.57;;;0.93;;
11548;SDS011;61444;59.472;18.306;2022-10-12T01:35:19;1.63;;;1.00;;
11548;SDS011;61444;59.472;18.306;2022-10-12T01:37:34;1.97;;;1.10;;
11548;SDS011;61444;59.472;18.306;2022-10-12T01:39:51;1.90;;;1.03;;
11548;SDS011;61444;59.472;18.306;2022-10-12T01:42:02;1.13;;;0.67;;
11548;SDS011;61444;59.472;18.306;2022-10-12T01:44:18;1.87;;;0.80;;
11548;SDS011;61444;59.472;18.306;2022-10-12T01:46:45;0.80;;;0.60;;
11548;SDS011;61444;59.472;18.306;2022-10-12T01:48:54;1.57;;;0.80;;
11548;SDS011;61444;59.472;18.306;2022-10-12T01:51:04;0.83;;;0.73;;
11548;SDS011;61444;59.472;18.306;2022-10-12T01:53:14;0.80;;;0.60;;
11548;SDS011;61444;59.472;18.306;2022-10-12T01:55:27;1.77;;;0.63;;
11548;SDS011;61444;59.472;18.306;2022-10-12T01:57:51;2.13;;;0.77;;
11548;SDS011;61444;59.472;18.306;2022-10-12T02:00:04;2.07;;;0.57;;
11548;SDS011;61444;59.472;18.306;2022-10-12T02:02:17;0.60;;;0.60;;
11548;SDS011;61444;59.472;18.306;2022-10-12T02:04:28;1.17;;;0.60;;
11548;SDS011;61444;59.472;18.306;2022-10-12T02:06:39;1.60;;;0.60;;
11548;SDS011;61444;59.472;18.306;2022-10-12T02:08:52;0.60;;;0.60;;
11548;SDS011;61444;59.472;18.306;2022-10-12T02:11:03;0.50;;;0.40;;
11548;SDS011;61444;59.472;18.306;2022-10-12T02:13:13;1.47;;;0.70;;
11548;SDS011;61444;59.472;18.306;2022-10-12T02:15:23;0.60;;;0.50;;
11548;SDS011;61444;59.472;18.306;2022-10-12T02:17:34;1.87;;;0.70;;
11548;SDS011;61444;59.472;18.306;2022-10-12T02:19:46;0.87;;;0.60;;
11548;SDS011;61444;59.472;18.306;2022-10-12T02:21:56;1.97;;;0.80;;
11548;SDS011;61444;59.472;18.306;2022-10-12T02:24:09;1.10;;;0.67;;
11548;SDS011;61444;59.472;18.306;2022-10-12T02:26:22;2.20;;;0.70;;
11548;SDS011;61444;59.472;18.306;2022-10-12T02:28:31;1.10;;;0.70;;
11548;SDS011;61444;59.472;18.306;2022-10-12T02:30:42;1.57;;;0.70;;
11548;SDS011;61444;59.472;18.306;2022-10-12T02:32:55;1.00;;;0.70;;
11548;SDS011;61444;59.472;18.306;2022-10-12T02:35:07;1.53;;;0.60;;
11548;SDS011;61444;59.472;18.306;2022-10-12T02:37:25;0.80;;;0.60;;
11548;SDS011;61444;59.472;18.306;2022-10-12T02:39:36;0.80;;;0.53;;
11548;SDS011;61444;59.472;18.306;2022-10-12T02:41:46;1.33;;;0.60;;
11548;SDS011;61444;59.472;18.306;2022-10-12T02:43:57;1.50;;;0.70;;
11548;SDS011;61444;59.472;18.306;2022-10-12T02:46:08;1.00;;;0.80;;
11548;SDS011;61444;59.472;18.306;2022-10-12T02:48:20;1.00;;;0.53;;
11548;SDS011;61444;59.472;18.306;2022-10-12T02:50:29;0.77;;;0.57;;
11548;SDS011;61444;59.472;18.306;2022-10-12T02:52:39;0.70;;;0.60;;
11548;SDS011;61444;59.472;18.306;2022-10-12T02:54:49;1.27;;;0.50;;
11548;SDS011;61444;59.472;18.306;2022-10-12T02:56:58;1.87;;;0.50;;
11548;SDS011;61444;59.472;18.306;2022-10-12T02:59:06;1.23;;;0.60;;
11548;SDS011;61444;59.472;18.306;2022-10-12T03:01:15;1.23;;;0.50;;
11548;SDS011;61444;59.472;18.306;2022-10-12T03:03:26;1.63;;;0.70;;
11548;SDS011;61444;59.472;18.306;2022-10-12T03:05:35;1.50;;;0.70;;
11548;SDS011;61444;59.472;18.306;2022-10-12T03:07:44;1.10;;;0.80;;
11548;SDS011;61444;59.472;18.306;2022-10-12T03:09:53;0.90;;;0.60;;
11548;SDS011;61444;59.472;18.306;2022-10-12T03:12:02;1.50;;;0.90;;
11548;SDS011;61444;59.472;18.306;2022-10-12T03:14:11;1.50;;;0.80;;
11548;SDS011;61444;59.472;18.306;2022-10-12T03:16:20;2.57;;;0.83;;
11548;SDS011;61444;59.472;18.306;2022-10-12T03:18:31;1.93;;;1.00;;
11548;SDS011;61444;59.472;18.306;2022-10-12T03:20:39;0.87;;;0.57;;
11548;SDS011;61444;59.472;18.306;2022-10-12T03:22:48;1.73;;;0.67;;
11548;SDS011;61444;59.472;18.306;2022-10-12T03:24:57;4.03;;;0.93;;
11548;SDS011;61444;59.472;18.306;2022-10-12T03:27:06;0.80;;;0.57;;
11548;SDS011;61444;59.472;18.306;2022-10-12T03:29:15;3.13;;;0.80;;
11548;SDS011;61444;59.472;18.306;2022-10-12T03:31:24;1.93;;;0.97;;
11548;SDS011;61444;59.472;18.306;2022-10-12T03:33:35;2.77;;;0.90;;
11548;SDS011;61444;59.472;18.306;2022-10-12T03:35:44;1.33;;;0.80;;
11548;SDS011;61444;59.472;18.306;2022-10-12T03:37:53;1.27;;;0.80;;
11548;SDS011;61444;59.472;18.306;2022-10-12T03:40:02;1.00;;;0.80;;
11548;SDS011;61444;59.472;18.306;2022-10-12T03:42:11;0.60;;;0.50;;
11548;SDS011;61444;59.472;18.306;2022-10-12T03:44:20;0.70;;;0.60;;
11548;SDS011;61444;59.472;18.306;2022-10-12T03:46:29;1.40;;;0.60;;
11548;SDS011;61444;59.472;18.306;2022-10-12T03:48:40;1.17;;;0.80;;
11548;SDS011;61444;59.472;18.306;2022-10-12T03:50:49;4.80;;;1.00;;
11548;SDS011;61444;59.472;18.306;2022-10-12T03:52:59;2.67;;;0.70;;
11548;SDS011;61444;59.472;18.306;2022-10-12T03:55:08;1.17;;;0.80;;
11548;SDS011;61444;59.472;18.306;2022-10-12T03:57:17;2.60;;;0.80;;
11548;SDS011;61444;59.472;18.306;2022-10-12T03:59:27;1.30;;;0.70;;
11548;SDS011;61444;59.472;18.306;2022-10-12T04:01:35;2.10;;;1.13;;
11548;SDS011;61444;59.472;18.306;2022-10-12T04:03:46;1.67;;;0.90;;
11548;SDS011;61444;59.472;18.306;2022-10-12T04:05:56;1.00;;;0.70;;
11548;SDS011;61444;59.472;18.306;2022-10-12T04:08:06;2.00;;;0.90;;
11548;SDS011;61444;59.472;18.306;2022-10-12T04:10:14;2.73;;;0.70;;
11548;SDS011;61444;59.472;18.306;2022-10-12T04:12:24;1.43;;;0.60;;
11548;SDS011;61444;59.472;18.306;2022-10-12T04:14:33;1.27;;;1.07;;
11548;SDS011;61444;59.472;18.306;2022-10-12T04:16:41;2.63;;;0.70;;
11548;SDS011;61444;59.472;18.306;2022-10-12T04:18:52;1.63;;;1.00;;
11548;SDS011;61444;59.472;18.306;2022-10-12T04:21:02;1.40;;;0.70;;
11548;SDS011;61444;59.472;18.306;2022-10-12T04:23:11;0.77;;;0.60;;
11548;SDS011;61444;59.472;18.306;2022-10-12T04:25:20;0.90;;;0.70;;
11548;SDS011;61444;59.472;18.306;2022-10-12T04:27:35;1.07;;;0.70;;
11548;SDS011;61444;59.472;18.306;2022-10-12T04:29:45;1.33;;;0.90;;
11548;SDS011;61444;59.472;18.306;2022-10-12T04:31:54;0.70;;;0.57;;
11548;SDS011;61444;59.472;18.306;2022-10-12T04:34:04;1.27;;;0.50;;
11548;SDS011;61444;59.472;18.306;2022-10-12T04:36:13;1.30;;;0.70;;
11548;SDS011;61444;59.472;18.306;2022-10-12T04:38:22;2.80;;;0.70;;
11548;SDS011;61444;59.472;18.306;2022-10-12T04:40:31;1.67;;;0.73;;
11548;SDS011;61444;59.472;18.306;2022-10-12T04:42:40;2.70;;;0.93;;
11548;SDS011;61444;59.472;18.306;2022-10-12T04:44:49;1.17;;;0.87;;
11548;SDS011;61444;59.472;18.306;2022-10-12T04:46:57;0.97;;;0.70;;
11548;SDS011;61444;59.472;18.306;2022-10-12T04:49:09;0.97;;;0.70;;
11548;SDS011;61444;59.472;18.306;2022-10-12T04:51:18;1.03;;;0.63;;
11548;SDS011;61444;59.472;18.306;2022-10-12T04:53:27;1.00;;;0.60;;
11548;SDS011;61444;59.472;18.306;2022-10-12T04:55:37;0.73;;;0.63;;
11548;SDS011;61444;59.472;18.306;2022-10-12T04:57:46;1.30;;;0.60;;
11548;SDS011;61444;59.472;18.306;2022-10-12T04:59:56;1.40;;;1.20;;
11548;SDS011;61444;59.472;18.306;2022-10-12T05:02:05;0.80;;;0.70;;
11548;SDS011;61444;59.472;18.306;2022-10-12T05:04:16;3.27;;;0.87;;
11548;SDS011;61444;59.472;18.306;2022-10-12T05:06:25;1.50;;;0.80;;
11548;SDS011;61444;59.472;18.306;2022-10-12T05:08:34;1.97;;;1.00;;
11548;SDS011;61444;59.472;18.306;2022-10-12T05:10:43;2.63;;;1.00;;
11548;SDS011;61444;59.472;18.306;2022-10-12T05:12:53;3.83;;;1.10;;
11548;SDS011;61444;59.472;18.306;2022-10-12T05:15:02;2.83;;;1.10;;
11548;SDS011;61444;59.472;18.306;2022-10-12T05:17:10;3.17;;;1.10;;
11548;SDS011;61444;59.472;18.306;2022-10-12T05:19:21;5.70;;;1.53;;
11548;SDS011;61444;59.472;18.306;2022-10-12T05:21:30;4.10;;;0.90;;
11548;SDS011;61444;59.472;18.306;2022-10-12T05:23:38;2.80;;;0.83;;
11548;SDS011;61444;59.472;18.306;2022-10-12T05:25:47;1.97;;;1.00;;
11548;SDS011;61444;59.472;18.306;2022-10-12T05:27:56;3.07;;;0.77;;
11548;SDS011;61444;59.472;18.306;2022-10-12T05:30:06;2.20;;;0.90;;
11548;SDS011;61444;59.472;18.306;2022-10-12T05:32:14;2.53;;;0.80;;
11548;SDS011;61444;59.472;18.306;2022-10-12T05:34:25;4.97;;;1.00;;
11548;SDS011;61444;59.472;18.306;2022-10-12T05:36:34;1.37;;;1.00;;
11548;SDS011;61444;59.472;18.306;2022-10-12T05:38:43;5.20;;;1.30;;
11548;SDS011;61444;59.472;18.306;2022-10-12T05:40:52;4.53;;;1.37;;
11548;SDS011;61444;59.472;18.306;2022-10-12T05:43:06;3.73;;;1.50;;
11548;SDS011;61444;59.472;18.306;2022-10-12T05:45:14;1.40;;;1.00;;
11548;SDS011;61444;59.472;18.306;2022-10-12T05:47:23;1.50;;;0.80;;
11548;SDS011;61444;59.472;18.306;2022-10-12T05:49:33;1.10;;;0.90;;
11548;SDS011;61444;59.472;18.306;2022-10-12T05:51:42;1.47;;;1.00;;
11548;SDS011;61444;59.472;18.306;2022-10-12T05:53:51;2.30;;;1.40;;
11548;SDS011;61444;59.472;18.306;2022-10-12T05:56:00;3.47;;;1.00;;
11548;SDS011;61444;59.472;18.306;2022-10-12T05:58:09;4.40;;;1.23;;
11548;SDS011;61444;59.472;18.306;2022-10-12T06:00:18;1.90;;;1.60;;
11548;SDS011;61444;59.472;18.306;2022-10-12T06:02:27;3.70;;;1.53;;
11548;SDS011;61444;59.472;18.306;2022-10-12T06:04:38;3.60;;;1.63;;
11548;SDS011;61444;59.472;18.306;2022-10-12T06:06:46;2.00;;;1.37;;
11548;SDS011;61444;59.472;18.306;2022-10-12T06:08:55;4.53;;;1.70;;
11548;SDS011;61444;59.472;18.306;2022-10-12T06:11:04;4.73;;;2.13;;
11548;SDS011;61444;59.472;18.306;2022-10-12T06:13:13;6.63;;;2.20;;
11548;SDS011;61444;59.472;18.306;2022-10-12T06:15:23;10.00;;;2.53;;
11548;SDS011;61444;59.472;18.306;2022-10-12T06:17:32;4.00;;;2.10;;
11548;SDS011;61444;59.472;18.306;2022-10-12T06:19:42;4.90;;;1.80;;
11548;SDS011;61444;59.472;18.306;2022-10-12T06:21:51;3.30;;;1.70;;
11548;SDS011;61444;59.472;18.306;2022-10-12T06:24:01;3.90;;;2.70;;
11548;SDS011;61444;59.472;18.306;2022-10-12T06:26:10;4.90;;;2.60;;
11548;SDS011;61444;59.472;18.306;2022-10-12T06:28:19;6.80;;;2.20;;
11548;SDS011;61444;59.472;18.306;2022-10-12T06:30:29;4.67;;;2.77;;
11548;SDS011;61444;59.472;18.306;2022-10-12T06:32:37;7.50;;;2.90;;
11548;SDS011;61444;59.472;18.306;2022-10-12T06:34:48;6.93;;;3.20;;
11548;SDS011;61444;59.472;18.306;2022-10-12T06:36:56;2.53;;;2.23;;
11548;SDS011;61444;59.472;18.306;2022-10-12T06:39:07;6.27;;;3.17;;
11548;SDS011;61444;59.472;18.306;2022-10-12T06:41:17;5.63;;;2.30;;
11548;SDS011;61444;59.472;18.306;2022-10-12T06:43:26;5.63;;;3.57;;
11548;SDS011;61444;59.472;18.306;2022-10-12T06:45:35;8.17;;;4.17;;
11548;SDS011;61444;59.472;18.306;2022-10-12T06:47:44;7.20;;;4.17;;
11548;SDS011;61444;59.472;18.306;2022-10-12T06:49:55;7.93;;;4.33;;
11548;SDS011;61444;59.472;18.306;2022-10-12T06:52:04;4.73;;;3.70;;
11548;SDS011;61444;59.472;18.306;2022-10-12T06:54:13;4.27;;;3.40;;
11548;SDS011;61444;59.472;18.306;2022-10-12T06:56:21;10.47;;;4.67;;
11548;SDS011;61444;59.472;18.306;2022-10-12T06:58:31;8.23;;;5.57;;
11548;SDS011;61444;59.472;18.306;2022-10-12T07:00:39;5.03;;;3.23;;
11548;SDS011;61444;59.472;18.306;2022-10-12T07:02:48;5.10;;;3.80;;
11548;SDS011;61444;59.472;18.306;2022-10-12T07:04:59;5.77;;;5.17;;
11548;SDS011;61444;59.472;18.306;2022-10-12T07:07:08;9.20;;;4.90;;
11548;SDS011;61444;59.472;18.306;2022-10-12T07:09:17;5.60;;;4.83;;
11548;SDS011;61444;59.472;18.306;2022-10-12T07:11:26;6.77;;;5.50;;
11548;SDS011;61444;59.472;18.306;2022-10-12T07:13:35;5.87;;;5.27;;
11548;SDS011;61444;59.472;18.306;2022-10-12T07:15:47;10.73;;;5.13;;
11548;SDS011;61444;59.472;18.306;2022-10-12T07:17:57;6.47;;;5.20;;
11548;SDS011;61444;59.472;18.306;2022-10-12T07:20:08;5.77;;;4.37;;
11548;SDS011;61444;59.472;18.306;2022-10-12T07:22:17;7.13;;;3.17;;
11548;SDS011;61444;59.472;18.306;2022-10-12T07:24:25;5.27;;;3.50;;
11548;SDS011;61444;59.472;18.306;2022-10-12T07:26:41;4.43;;;3.20;;
11548;SDS011;61444;59.472;18.306;2022-10-12T07:28:50;6.63;;;3.40;;
11548;SDS011;61444;59.472;18.306;2022-10-12T07:30:59;4.37;;;3.13;;
11548;SDS011;61444;59.472;18.306;2022-10-12T07:33:09;6.57;;;3.50;;
11548;SDS011;61444;59.472;18.306;2022-10-12T07:35:19;4.13;;;2.90;;
11548;SDS011;61444;59.472;18.306;2022-10-12T07:37:28;4.33;;;2.23;;
11548;SDS011;61444;59.472;18.306;2022-10-12T07:39:37;3.37;;;1.80;;
11548;SDS011;61444;59.472;18.306;2022-10-12T07:41:47;2.53;;;1.80;;
11548;SDS011;61444;59.472;18.306;2022-10-12T07:43:56;1.60;;;1.40;;
11548;SDS011;61444;59.472;18.306;2022-10-12T07:46:05;2.53;;;1.50;;
11548;SDS011;61444;59.472;18.306;2022-10-12T07:48:14;4.07;;;1.20;;
11548;SDS011;61444;59.472;18.306;2022-10-12T07:50:25;3.20;;;1.60;;
11548;SDS011;61444;59.472;18.306;2022-10-12T07:52:34;4.03;;;1.50;;
11548;SDS011;61444;59.472;18.306;2022-10-12T07:54:43;1.63;;;1.13;;
11548;SDS011;61444;59.472;18.306;2022-10-12T07:56:52;1.77;;;1.37;;
11548;SDS011;61444;59.472;18.306;2022-10-12T07:59:03;2.33;;;1.23;;
11548;SDS011;61444;59.472;18.306;2022-10-12T08:01:12;2.40;;;1.10;;
11548;SDS011;61444;59.472;18.306;2022-10-12T08:03:21;1.63;;;1.03;;
11548;SDS011;61444;59.472;18.306;2022-10-12T08:05:32;1.80;;;1.13;;
11548;SDS011;61444;59.472;18.306;2022-10-12T08:07:44;1.30;;;1.20;;
11548;SDS011;61444;59.472;18.306;2022-10-12T08:09:52;1.17;;;0.90;;
11548;SDS011;61444;59.472;18.306;2022-10-12T08:12:02;2.77;;;1.10;;
11548;SDS011;61444;59.472;18.306;2022-10-12T08:14:12;1.73;;;0.90;;
11548;SDS011;61444;59.472;18.306;2022-10-12T08:16:21;2.83;;;0.90;;
11548;SDS011;61444;59.472;18.306;2022-10-12T08:18:30;1.97;;;0.70;;
11548;SDS011;61444;59.472;18.306;2022-10-12T08:20:41;2.33;;;0.83;;
11548;SDS011;61444;59.472;18.306;2022-10-12T08:22:50;1.10;;;0.90;;
11548;SDS011;61444;59.472;18.306;2022-10-12T08:24:59;1.00;;;0.80;;
11548;SDS011;61444;59.472;18.306;2022-10-12T08:27:08;1.13;;;0.80;;
11548;SDS011;61444;59.472;18.306;2022-10-12T08:29:16;2.53;;;0.70;;
11548;SDS011;61444;59.472;18.306;2022-10-12T08:31:25;3.23;;;0.80;;
11548;SDS011;61444;59.472;18.306;2022-10-12T08:33:34;1.00;;;0.80;;
11548;SDS011;61444;59.472;18.306;2022-10-12T08:35:45;2.07;;;0.87;;
11548;SDS011;61444;59.472;18.306;2022-10-12T08:37:55;1.40;;;0.90;;
11548;SDS011;61444;59.472;18.306;2022-10-12T08:40:04;2.67;;;0.70;;
11548;SDS011;61444;59.472;18.306;2022-10-12T08:42:16;3.37;;;1.00;;
11548;SDS011;61444;59.472;18.306;2022-10-12T08:44:32;1.00;;;0.97;;
11548;SDS011;61444;59.472;18.306;2022-10-12T08:46:43;0.97;;;0.70;;
11548;SDS011;61444;59.472;18.306;2022-10-12T08:48:54;4.27;;;0.70;;
11548;SDS011;61444;59.472;18.306;2022-10-12T08:51:07;1.87;;;0.80;;
11548;SDS011;61444;59.472;18.306;2022-10-12T08:53:18;0.80;;;0.63;;
11548;SDS011;61444;59.472;18.306;2022-10-12T08:55:32;1.30;;;0.60;;
11548;SDS011;61444;59.472;18.306;2022-10-12T08:57:41;1.27;;;0.70;;
11548;SDS011;61444;59.472;18.306;2022-10-12T08:59:55;1.53;;;0.70;;
11548;SDS011;61444;59.472;18.306;2022-10-12T09:02:06;1.47;;;0.60;;
11548;SDS011;61444;59.472;18.306;2022-10-12T09:04:27;1.23;;;0.80;;
11548;SDS011;61444;59.472;18.306;2022-10-12T09:06:44;3.60;;;0.90;;
11548;SDS011;61444;59.472;18.306;2022-10-12T09:08:57;0.50;;;0.40;;
11548;SDS011;61444;59.472;18.306;2022-10-12T09:11:13;0.37;;;0.37;;
11548;SDS011;61444;59.472;18.306;2022-10-12T09:13:30;1.40;;;0.60;;
11548;SDS011;61444;59.472;18.306;2022-10-12T09:15:45;0.90;;;0.50;;
11548;SDS011;61444;59.472;18.306;2022-10-12T09:17:56;0.70;;;0.50;;
11548;SDS011;61444;59.472;18.306;2022-10-12T09:20:09;0.77;;;0.53;;
11548;SDS011;61444;59.472;18.306;2022-10-12T09:22:24;2.00;;;0.43;;
11548;SDS011;61444;59.472;18.306;2022-10-12T09:24:35;0.80;;;0.43;;
11548;SDS011;61444;59.472;18.306;2022-10-12T09:26:45;3.03;;;0.70;;
11548;SDS011;61444;59.472;18.306;2022-10-12T09:28:57;0.50;;;0.50;;
11548;SDS011;61444;59.472;18.306;2022-10-12T09:31:12;1.30;;;0.50;;
11548;SDS011;61444;59.472;18.306;2022-10-12T09:33:25;0.50;;;0.50;;
11548;SDS011;61444;59.472;18.306;2022-10-12T09:35:35;0.97;;;0.60;;
11548;SDS011;61444;59.472;18.306;2022-10-12T09:37:47;0.87;;;0.40;;
11548;SDS011;61444;59.472;18.306;2022-10-12T09:39:59;0.43;;;0.40;;
11548;SDS011;61444;59.472;18.306;2022-10-12T09:42:08;2.47;;;0.57;;
11548;SDS011;61444;59.472;18.306;2022-10-12T09:46:32;1.03;;;0.47;;
11548;SDS011;61444;59.472;18.306;2022-10-12T09:48:54;1.67;;;0.70;;
11548;SDS011;61444;59.472;18.306;2022-10-12T09:51:04;0.80;;;0.73;;
11548;SDS011;61444;59.472;18.306;2022-10-12T09:53:23;2.40;;;0.70;;
11548;SDS011;61444;59.472;18.306;2022-10-12T09:55:33;0.50;;;0.50;;
11548;SDS011;61444;59.472;18.306;2022-10-12T09:57:42;0.40;;;0.40;;
11548;SDS011;61444;59.472;18.306;2022-10-12T09:59:52;2.07;;;0.60;;
11548;SDS011;61444;59.472;18.306;2022-10-12T10:02:03;0.67;;;0.67;;
11548;SDS011;61444;59.472;18.306;2022-10-12T10:04:21;1.00;;;0.80;;
11548;SDS011;61444;59.472;18.306;2022-10-12T10:06:31;1.77;;;0.70;;
11548;SDS011;61444;59.472;18.306;2022-10-12T10:08:42;0.53;;;0.53;;
11548;SDS011;61444;59.472;18.306;2022-10-12T10:10:54;0.80;;;0.80;;
11548;SDS011;61444;59.472;18.306;2022-10-12T10:13:04;1.07;;;0.60;;
11548;SDS011;61444;59.472;18.306;2022-10-12T10:15:17;0.87;;;0.70;;
11548;SDS011;61444;59.472;18.306;2022-10-12T10:17:27;2.23;;;0.60;;
11548;SDS011;61444;59.472;18.306;2022-10-12T10:19:36;0.50;;;0.50;;
11548;SDS011;61444;59.472;18.306;2022-10-12T10:21:45;2.80;;;0.50;;
11548;SDS011;61444;59.472;18.306;2022-10-12T10:23:57;0.87;;;0.50;;
11548;SDS011;61444;59.472;18.306;2022-10-12T10:26:07;0.60;;;0.60;;
11548;SDS011;61444;59.472;18.306;2022-10-12T10:28:20;0.60;;;0.60;;
11548;SDS011;61444;59.472;18.306;2022-10-12T10:30:29;0.50;;;0.40;;
11548;SDS011;61444;59.472;18.306;2022-10-12T10:32:46;0.47;;;0.47;;
11548;SDS011;61444;59.472;18.306;2022-10-12T10:35:02;0.50;;;0.50;;
11548;SDS011;61444;59.472;18.306;2022-10-12T10:37:12;0.70;;;0.60;;
11548;SDS011;61444;59.472;18.306;2022-10-12T10:39:25;0.50;;;0.50;;
11548;SDS011;61444;59.472;18.306;2022-10-12T10:41:35;0.73;;;0.63;;
11548;SDS011;61444;59.472;18.306;2022-10-12T10:43:45;0.80;;;0.80;;
11548;SDS011;61444;59.472;18.306;2022-10-12T10:45:55;1.37;;;0.60;;
11548;SDS011;61444;59.472;18.306;2022-10-12T10:48:05;1.10;;;0.53;;
11548;SDS011;61444;59.472;18.306;2022-10-12T10:50:23;1.27;;;0.63;;
11548;SDS011;61444;59.472;18.306;2022-10-12T10:52:33;0.80;;;0.60;;
11548;SDS011;61444;59.472;18.306;2022-10-12T10:54:44;0.87;;;0.63;;
11548;SDS011;61444;59.472;18.306;2022-10-12T10:56:56;1.87;;;0.70;;
11548;SDS011;61444;59.472;18.306;2022-10-12T10:59:11;1.57;;;0.80;;
11548;SDS011;61444;59.472;18.306;2022-10-12T11:01:24;0.70;;;0.70;;
11548;SDS011;61444;59.472;18.306;2022-10-12T11:03:38;0.87;;;0.80;;
11548;SDS011;61444;59.472;18.306;2022-10-12T11:05:56;1.80;;;0.80;;
11548;SDS011;61444;59.472;18.306;2022-10-12T11:08:08;3.03;;;0.87;;
11548;SDS011;61444;59.472;18.306;2022-10-12T11:10:23;1.10;;;0.90;;
11548;SDS011;61444;59.472;18.306;2022-10-12T11:12:34;1.17;;;0.80;;
11548;SDS011;61444;59.472;18.306;2022-10-12T11:14:44;1.53;;;0.80;;
11548;SDS011;61444;59.472;18.306;2022-10-12T11:16:54;2.87;;;0.90;;
11548;SDS011;61444;59.472;18.306;2022-10-12T11:19:06;1.57;;;0.90;;
11548;SDS011;61444;59.472;18.306;2022-10-12T11:21:21;1.27;;;1.00;;
11548;SDS011;61444;59.472;18.306;2022-10-12T11:23:34;1.30;;;0.90;;
11548;SDS011;61444;59.472;18.306;2022-10-12T11:25:50;2.40;;;1.23;;
11548;SDS011;61444;59.472;18.306;2022-10-12T11:28:02;1.57;;;1.00;;
11548;SDS011;61444;59.472;18.306;2022-10-12T11:30:14;4.33;;;1.00;;
11548;SDS011;61444;59.472;18.306;2022-10-12T11:32:24;3.07;;;1.00;;
11548;SDS011;61444;59.472;18.306;2022-10-12T11:34:37;2.93;;;0.87;;
11548;SDS011;61444;59.472;18.306;2022-10-12T11:36:51;1.80;;;0.90;;
11548;SDS011;61444;59.472;18.306;2022-10-12T11:39:24;2.23;;;1.70;;
11548;SDS011;61444;59.472;18.306;2022-10-12T11:41:38;2.20;;;1.00;;
11548;SDS011;61444;59.472;18.306;2022-10-12T11:44:12;2.47;;;0.80;;
11548;SDS011;61444;59.472;18.306;2022-10-12T11:46:29;0.90;;;0.70;;
11548;SDS011;61444;59.472;18.306;2022-10-12T11:48:40;2.30;;;1.07;;
11548;SDS011;61444;59.472;18.306;2022-10-12T11:50:51;1.47;;;1.00;;
11548;SDS011;61444;59.472;18.306;2022-10-12T11:53:00;0.87;;;0.77;;
11548;SDS011;61444;59.472;18.306;2022-10-12T11:57:41;0.70;;;0.60;;
11548;SDS011;61444;59.472;18.306;2022-10-12T11:59:50;1.13;;;0.57;;
11548;SDS011;61444;59.472;18.306;2022-10-12T12:02:02;0.60;;;0.60;;
11548;SDS011;61444;59.472;18.306;2022-10-12T12:04:21;1.40;;;0.57;;
11548;SDS011;61444;59.472;18.306;2022-10-12T12:06:52;1.30;;;0.80;;
11548;SDS011;61444;59.472;18.306;2022-10-12T12:09:04;0.87;;;0.70;;
11548;SDS011;61444;59.472;18.306;2022-10-12T12:11:17;2.03;;;0.83;;
11548;SDS011;61444;59.472;18.306;2022-10-12T12:13:29;1.23;;;0.70;;
11548;SDS011;61444;59.472;18.306;2022-10-12T12:15:39;0.80;;;0.60;;
11548;SDS011;61444;59.472;18.306;2022-10-12T12:18:08;0.63;;;0.60;;
11548;SDS011;61444;59.472;18.306;2022-10-12T12:22:49;1.30;;;0.70;;
11548;SDS011;61444;59.472;18.306;2022-10-12T12:25:14;1.67;;;0.90;;
11548;SDS011;61444;59.472;18.306;2022-10-12T12:27:28;1.80;;;0.80;;
11548;SDS011;61444;59.472;18.306;2022-10-12T12:29:39;0.63;;;0.60;;
11548;SDS011;61444;59.472;18.306;2022-10-12T12:31:57;2.87;;;0.70;;
11548;SDS011;61444;59.472;18.306;2022-10-12T12:34:10;1.57;;;1.00;;
11548;SDS011;61444;59.472;18.306;2022-10-12T12:36:26;0.90;;;0.70;;
11548;SDS011;61444;59.472;18.306;2022-10-12T12:38:36;1.73;;;0.70;;
11548;SDS011;61444;59.472;18.306;2022-10-12T12:40:53;1.43;;;0.60;;
11548;SDS011;61444;59.472;18.306;2022-10-12T12:45:40;0.70;;;0.70;;
11548;SDS011;61444;59.472;18.306;2022-10-12T12:47:51;0.60;;;0.60;;
11548;SDS011;61444;59.472;18.306;2022-10-12T12:50:01;1.40;;;0.80;;
11548;SDS011;61444;59.472;18.306;2022-10-12T12:52:23;1.50;;;0.80;;
11548;SDS011;61444;59.472;18.306;2022-10-12T12:54:34;0.87;;;0.60;;
11548;SDS011;61444;59.472;18.306;2022-10-12T12:56:50;0.63;;;0.57;;
11548;SDS011;61444;59.472;18.306;2022-10-12T12:59:10;2.60;;;0.60;;
11548;SDS011;61444;59.472;18.306;2022-10-12T13:01:30;1.97;;;0.70;;
11548;SDS011;61444;59.472;18.306;2022-10-12T13:03:55;0.60;;;0.60;;
11548;SDS011;61444;59.472;18.306;2022-10-12T13:06:24;1.73;;;0.70;;
11548;SDS011;61444;59.472;18.306;2022-10-12T13:08:42;0.77;;;0.60;;
11548;SDS011;61444;59.472;18.306;2022-10-12T13:10:58;0.90;;;0.70;;